sensor_id;sensor_type;location;lat;lon;timestamp;temperature;humidity
5492;DHT22;2768;53.540;10.224;2023-05-10T00:03:19;15.80;1.00
5492;DHT22;2768;53.540;10.224;2023-05-10T00:09:13;15.70;1.00
5492;DHT22;2768;53.540;10.224;2023-05-10T00:15:08;15.70;1.00
5492;DHT22;2768;53.540;10.224;2023-05-10T00:21:02;15.70;1.00
5492;DHT22;2768;53.540;10.224;2023-05-10T00:26:55;15.60;1.00
5492;DHT22;2768;53.540;10.224;2023-05-10T00:32:49;15.60;1.00
5492;DHT22;2768;53.540;10.224;2023-05-10T00:38:43;15.60;1.00
5492;DHT22;2768;53.540;10.224;2023-05-10T00:44:37;15.50;1.00
5492;DHT22;2768;53.540;10.224;2023-05-10T00:50:32;15.40;1.00
5492;DHT22;2768;53.540;10.224;2023-05-10T00:56:26;15.40;1.00
5492;DHT22;2768;53.540;10.224;2023-05-10T01:02:21;15.30;1.00
5492;DHT22;2768;53.540;10.224;2023-05-10T01:08:16;15.30;1.00
5492;DHT22;2768;53.540;10.224;2023-05-10T01:14:10;15.30;1.00
5492;DHT22;2768;53.540;10.224;2023-05-10T01:20:06;15.20;1.00
5492;DHT22;2768;53.540;10.224;2023-05-10T01:26:30;15.20;1.00
5492;DHT22;2768;53.540;10.224;2023-05-10T01:32:36;15.10;1.00
5492;DHT22;2768;53.540;10.224;2023-05-10T01:38:45;15.00;1.00
5492;DHT22;2768;53.540;10.224;2023-05-10T01:44:46;15.10;1.00
5492;DHT22;2768;53.540;10.224;2023-05-10T01:50:45;14.90;1.00
5492;DHT22;2768;53.540;10.224;2023-05-10T01:56:39;14.90;1.00
5492;DHT22;2768;53.540;10.224;2023-05-10T02:02:36;14.80;1.00
5492;DHT22;2768;53.540;10.224;2023-05-10T02:08:33;14.80;1.00
5492;DHT22;2768;53.540;10.224;2023-05-10T02:14:29;14.80;1.00
5492;DHT22;2768;53.540;10.224;2023-05-10T02:20:23;14.70;1.00
5492;DHT22;2768;53.540;10.224;2023-05-10T02:26:20;14.60;1.00
5492;DHT22;2768;53.540;10.224;2023-05-10T02:32:16;14.70;1.00
5492;DHT22;2768;53.540;10.224;2023-05-10T02:38:10;14.60;1.00
5492;DHT22;2768;53.540;10.224;2023-05-10T02:44:07;14.50;1.00
5492;DHT22;2768;53.540;10.224;2023-05-10T02:50:01;14.60;1.00
5492;DHT22;2768;53.540;10.224;2023-05-10T02:55:59;14.50;1.00
5492;DHT22;2768;53.540;10.224;2023-05-10T03:01:57;14.40;1.00
5492;DHT22;2768;53.540;10.224;2023-05-10T03:07:50;14.30;1.00
5492;DHT22;2768;53.540;10.224;2023-05-10T03:13:48;14.40;1.00
5492;DHT22;2768;53.540;10.224;2023-05-10T03:19:52;14.30;1.00
5492;DHT22;2768;53.540;10.224;2023-05-10T03:25:48;14.30;1.00
5492;DHT22;2768;53.540;10.224;2023-05-10T03:31:42;14.20;1.00
5492;DHT22;2768;53.540;10.224;2023-05-10T03:37:36;14.30;1.00
5492;DHT22;2768;53.540;10.224;2023-05-10T03:43:30;14.30;1.00
5492;DHT22;2768;53.540;10.224;2023-05-10T03:49:23;14.30;1.00
5492;DHT22;2768;53.540;10.224;2023-05-10T03:55:18;14.20;1.00
5492;DHT22;2768;53.540;10.224;2023-05-10T04:01:12;14.20;1.00
5492;DHT22;2768;53.540;10.224;2023-05-10T04:07:05;14.20;1.00
5492;DHT22;2768;53.540;10.224;2023-05-10T04:13:00;14.20;1.00
5492;DHT22;2768;53.540;10.224;2023-05-10T04:18:53;14.10;1.00
5492;DHT22;2768;53.540;10.224;2023-05-10T04:24:46;14.10;1.00
5492;DHT22;2768;53.540;10.224;2023-05-10T04:30:40;14.00;1.00
5492;DHT22;2768;53.540;10.224;2023-05-10T04:36:34;14.00;1.00
5492;DHT22;2768;53.540;10.224;2023-05-10T04:42:28;14.00;1.00
5492;DHT22;2768;53.540;10.224;2023-05-10T04:48:23;14.00;1.00
5492;DHT22;2768;53.540;10.224;2023-05-10T04:54:16;14.10;1.00
5492;DHT22;2768;53.540;10.224;2023-05-10T05:00:10;14.10;1.00
5492;DHT22;2768;53.540;10.224;2023-05-10T05:06:05;14.00;1.00
5492;DHT22;2768;53.540;10.224;2023-05-10T05:11:58;14.00;1.00
5492;DHT22;2768;53.540;10.224;2023-05-10T05:17:51;14.00;1.00
5492;DHT22;2768;53.540;10.224;2023-05-10T05:23:46;14.10;1.00
5492;DHT22;2768;53.540;10.224;2023-05-10T05:29:40;14.30;1.00
5492;DHT22;2768;53.540;10.224;2023-05-10T05:35:33;14.20;1.00
5492;DHT22;2768;53.540;10.224;2023-05-10T05:41:27;14.20;1.00
5492;DHT22;2768;53.540;10.224;2023-05-10T05:47:20;14.40;1.00
5492;DHT22;2768;53.540;10.224;2023-05-10T05:53:14;14.40;1.00
5492;DHT22;2768;53.540;10.224;2023-05-10T05:59:09;14.40;1.00
5492;DHT22;2768;53.540;10.224;2023-05-10T06:05:03;14.50;1.00
5492;DHT22;2768;53.540;10.224;2023-05-10T06:10:56;14.40;1.00
5492;DHT22;2768;53.540;10.224;2023-05-10T06:16:50;14.60;1.00
5492;DHT22;2768;53.540;10.224;2023-05-10T06:22:44;14.70;1.00
5492;DHT22;2768;53.540;10.224;2023-05-10T06:28:37;14.80;1.00
5492;DHT22;2768;53.540;10.224;2023-05-10T06:34:32;15.00;1.00
5492;DHT22;2768;53.540;10.224;2023-05-10T06:40:25;15.00;1.00
5492;DHT22;2768;53.540;10.224;2023-05-10T06:46:19;15.10;1.00
5492;DHT22;2768;53.540;10.224;2023-05-10T06:52:13;15.20;1.00
5492;DHT22;2768;53.540;10.224;2023-05-10T06:58:07;15.30;1.00
5492;DHT22;2768;53.540;10.224;2023-05-10T07:04:00;15.20;1.00
5492;DHT22;2768;53.540;10.224;2023-05-10T07:09:54;15.40;1.00
5492;DHT22;2768;53.540;10.224;2023-05-10T07:15:48;15.50;1.00
5492;DHT22;2768;53.540;10.224;2023-05-10T07:21:41;15.70;1.00
5492;DHT22;2768;53.540;10.224;2023-05-10T07:27:36;15.90;1.00
5492;DHT22;2768;53.540;10.224;2023-05-10T07:33:29;15.90;1.00
5492;DHT22;2768;53.540;10.224;2023-05-10T07:39:23;16.00;1.00
5492;DHT22;2768;53.540;10.224;2023-05-10T07:45:20;16.10;1.00
5492;DHT22;2768;53.540;10.224;2023-05-10T07:51:13;16.00;1.00
5492;DHT22;2768;53.540;10.224;2023-05-10T07:57:06;16.30;1.00
5492;DHT22;2768;53.540;10.224;2023-05-10T08:03:01;16.30;1.00
5492;DHT22;2768;53.540;10.224;2023-05-10T08:08:56;16.30;1.00
5492;DHT22;2768;53.540;10.224;2023-05-10T08:14:49;16.40;1.00
5492;DHT22;2768;53.540;10.224;2023-05-10T08:20:43;16.50;1.00
5492;DHT22;2768;53.540;10.224;2023-05-10T08:26:37;16.30;1.00
5492;DHT22;2768;53.540;10.224;2023-05-10T08:32:30;16.40;1.00
5492;DHT22;2768;53.540;10.224;2023-05-10T08:38:24;16.30;1.00
5492;DHT22;2768;53.540;10.224;2023-05-10T08:44:18;16.50;1.00
5492;DHT22;2768;53.540;10.224;2023-05-10T08:50:12;16.60;1.00
5492;DHT22;2768;53.540;10.224;2023-05-10T08:56:08;16.60;1.00
5492;DHT22;2768;53.540;10.224;2023-05-10T09:02:02;16.50;1.00
5492;DHT22;2768;53.540;10.224;2023-05-10T09:07:57;16.70;1.00
5492;DHT22;2768;53.540;10.224;2023-05-10T09:13:54;16.60;1.00
5492;DHT22;2768;53.540;10.224;2023-05-10T09:19:48;16.60;1.00
5492;DHT22;2768;53.540;10.224;2023-05-10T09:25:42;16.40;1.00
5492;DHT22;2768;53.540;10.224;2023-05-10T09:31:47;16.50;1.00
5492;DHT22;2768;53.540;10.224;2023-05-10T09:37:44;16.40;1.00
5492;DHT22;2768;53.540;10.224;2023-05-10T09:43:40;16.50;1.00
5492;DHT22;2768;53.540;10.224;2023-05-10T09:49:34;16.40;1.00
5492;DHT22;2768;53.540;10.224;2023-05-10T09:55:39;16.20;1.00
5492;DHT22;2768;53.540;10.224;2023-05-10T10:01:33;16.20;1.00
5492;DHT22;2768;53.540;10.224;2023-05-10T10:07:28;16.10;1.00
5492;DHT22;2768;53.540;10.224;2023-05-10T10:13:21;16.10;1.00
5492;DHT22;2768;53.540;10.224;2023-05-10T10:19:15;16.00;1.00
5492;DHT22;2768;53.540;10.224;2023-05-10T10:25:11;16.00;1.00
5492;DHT22;2768;53.540;10.224;2023-05-10T10:31:15;15.80;1.00
5492;DHT22;2768;53.540;10.224;2023-05-10T10:37:10;15.50;1.00
5492;DHT22;2768;53.540;10.224;2023-05-10T10:43:23;15.20;86.80
5492;DHT22;2768;53.540;10.224;2023-05-10T10:49:17;15.00;99.90
5492;DHT22;2768;53.540;10.224;2023-05-10T10:55:12;14.90;99.90
5492;DHT22;2768;53.540;10.224;2023-05-10T11:01:12;14.80;99.90
5492;DHT22;2768;53.540;10.224;2023-05-10T11:07:16;14.90;99.90
5492;DHT22;2768;53.540;10.224;2023-05-10T11:13:10;14.90;99.90
5492;DHT22;2768;53.540;10.224;2023-05-10T11:19:08;15.00;99.90
5492;DHT22;2768;53.540;10.224;2023-05-10T11:25:02;15.00;99.90
5492;DHT22;2768;53.540;10.224;2023-05-10T11:30:56;15.30;99.90
5492;DHT22;2768;53.540;10.224;2023-05-10T11:36:52;15.30;99.90
5492;DHT22;2768;53.540;10.224;2023-05-10T11:42:46;15.50;99.90
5492;DHT22;2768;53.540;10.224;2023-05-10T11:48:40;15.40;99.90
5492;DHT22;2768;53.540;10.224;2023-05-10T11:54:35;15.50;99.90
5492;DHT22;2768;53.540;10.224;2023-05-10T12:00:29;15.50;99.90
5492;DHT22;2768;53.540;10.224;2023-05-10T12:06:25;15.70;99.90
5492;DHT22;2768;53.540;10.224;2023-05-10T12:12:20;15.70;99.90
5492;DHT22;2768;53.540;10.224;2023-05-10T12:18:14;15.80;99.90
5492;DHT22;2768;53.540;10.224;2023-05-10T12:24:07;15.80;99.90
5492;DHT22;2768;53.540;10.224;2023-05-10T12:30:04;15.40;99.90
5492;DHT22;2768;53.540;10.224;2023-05-10T12:35:59;15.10;99.90
5492;DHT22;2768;53.540;10.224;2023-05-10T12:41:53;15.20;99.90
5492;DHT22;2768;53.540;10.224;2023-05-10T12:47:48;15.60;99.90
5492;DHT22;2768;53.540;10.224;2023-05-10T12:53:41;15.80;99.90
5492;DHT22;2768;53.540;10.224;2023-05-10T12:59:37;15.80;99.90
5492;DHT22;2768;53.540;10.224;2023-05-10T13:05:32;16.00;99.90
5492;DHT22;2768;53.540;10.224;2023-05-10T13:11:25;16.10;99.90
5492;DHT22;2768;53.540;10.224;2023-05-10T13:17:19;16.30;99.90
5492;DHT22;2768;53.540;10.224;2023-05-10T13:23:14;16.30;99.90
5492;DHT22;2768;53.540;10.224;2023-05-10T13:29:07;16.50;99.90
5492;DHT22;2768;53.540;10.224;2023-05-10T13:35:00;16.40;99.90
5492;DHT22;2768;53.540;10.224;2023-05-10T13:40:56;16.50;99.90
5492;DHT22;2768;53.540;10.224;2023-05-10T13:46:49;16.60;99.90
5492;DHT22;2768;53.540;10.224;2023-05-10T13:52:42;16.60;99.90
5492;DHT22;2768;53.540;10.224;2023-05-10T13:58:37;16.70;99.90
5492;DHT22;2768;53.540;10.224;2023-05-10T14:04:30;16.70;99.90
5492;DHT22;2768;53.540;10.224;2023-05-10T14:10:24;16.80;99.90
5492;DHT22;2768;53.540;10.224;2023-05-10T14:16:18;17.00;99.90
5492;DHT22;2768;53.540;10.224;2023-05-10T14:22:12;17.20;99.90
5492;DHT22;2768;53.540;10.224;2023-05-10T14:28:05;17.20;99.90
5492;DHT22;2768;53.540;10.224;2023-05-10T14:34:00;17.20;99.90
5492;DHT22;2768;53.540;10.224;2023-05-10T14:39:53;17.10;99.90
5492;DHT22;2768;53.540;10.224;2023-05-10T14:45:46;17.10;99.90
5492;DHT22;2768;53.540;10.224;2023-05-10T14:51:41;17.00;99.90
5492;DHT22;2768;53.540;10.224;2023-05-10T14:57:34;17.00;99.90
5492;DHT22;2768;53.540;10.224;2023-05-10T15:03:28;17.10;99.90
5492;DHT22;2768;53.540;10.224;2023-05-10T15:09:23;16.70;99.90
5492;DHT22;2768;53.540;10.224;2023-05-10T15:15:16;17.00;99.90
5492;DHT22;2768;53.540;10.224;2023-05-10T15:21:10;17.10;99.90
5492;DHT22;2768;53.540;10.224;2023-05-10T15:27:04;17.40;99.90
5492;DHT22;2768;53.540;10.224;2023-05-10T15:32:58;17.40;99.90
5492;DHT22;2768;53.540;10.224;2023-05-10T15:38:51;17.40;99.90
5492;DHT22;2768;53.540;10.224;2023-05-10T15:44:46;17.40;99.90
5492;DHT22;2768;53.540;10.224;2023-05-10T15:50:42;17.40;99.90
5492;DHT22;2768;53.540;10.224;2023-05-10T15:56:35;17.30;99.90
5492;DHT22;2768;53.540;10.224;2023-05-10T16:02:30;17.20;99.90
5492;DHT22;2768;53.540;10.224;2023-05-10T16:08:23;17.20;99.90
5492;DHT22;2768;53.540;10.224;2023-05-10T16:14:17;17.20;99.90
5492;DHT22;2768;53.540;10.224;2023-05-10T16:20:13;17.10;99.90
5492;DHT22;2768;53.540;10.224;2023-05-10T16:26:06;17.00;99.90
5492;DHT22;2768;53.540;10.224;2023-05-10T16:32:00;16.90;99.90
5492;DHT22;2768;53.540;10.224;2023-05-10T16:37:55;16.90;99.90
5492;DHT22;2768;53.540;10.224;2023-05-10T16:43:48;16.90;99.90
5492;DHT22;2768;53.540;10.224;2023-05-10T16:49:42;16.80;99.90
5492;DHT22;2768;53.540;10.224;2023-05-10T16:55:36;16.80;99.90
5492;DHT22;2768;53.540;10.224;2023-05-10T17:01:29;16.80;99.90
5492;DHT22;2768;53.540;10.224;2023-05-10T17:07:23;16.70;99.90
5492;DHT22;2768;53.540;10.224;2023-05-10T17:13:18;16.80;99.90
5492;DHT22;2768;53.540;10.224;2023-05-10T17:19:11;16.60;99.90
5492;DHT22;2768;53.540;10.224;2023-05-10T17:25:06;16.50;99.90
5492;DHT22;2768;53.540;10.224;2023-05-10T17:31:01;16.30;99.90
5492;DHT22;2768;53.540;10.224;2023-05-10T17:36:54;16.20;99.90
5492;DHT22;2768;53.540;10.224;2023-05-10T17:42:48;16.20;99.90
5492;DHT22;2768;53.540;10.224;2023-05-10T17:48:42;16.10;99.90
5492;DHT22;2768;53.540;10.224;2023-05-10T17:54:35;16.00;99.90
5492;DHT22;2768;53.540;10.224;2023-05-10T18:00:29;16.00;99.90
5492;DHT22;2768;53.540;10.224;2023-05-10T18:06:24;15.90;99.90
5492;DHT22;2768;53.540;10.224;2023-05-10T18:12:17;15.90;99.90
5492;DHT22;2768;53.540;10.224;2023-05-10T18:18:10;15.90;99.90
5492;DHT22;2768;53.540;10.224;2023-05-10T18:24:05;15.80;99.90
5492;DHT22;2768;53.540;10.224;2023-05-10T18:29:58;15.70;99.90
5492;DHT22;2768;53.540;10.224;2023-05-10T18:35:51;15.50;99.90
5492;DHT22;2768;53.540;10.224;2023-05-10T18:41:46;15.50;99.90
5492;DHT22;2768;53.540;10.224;2023-05-10T18:47:40;15.30;99.90
5492;DHT22;2768;53.540;10.224;2023-05-10T18:53:34;15.20;99.90
5492;DHT22;2768;53.540;10.224;2023-05-10T18:59:28;15.20;99.90
5492;DHT22;2768;53.540;10.224;2023-05-10T19:05:21;15.30;1.00
5492;DHT22;2768;53.540;10.224;2023-05-10T19:11:20;15.30;1.00
5492;DHT22;2768;53.540;10.224;2023-05-10T19:17:15;15.20;1.00
5492;DHT22;2768;53.540;10.224;2023-05-10T19:23:09;15.30;1.00
5492;DHT22;2768;53.540;10.224;2023-05-10T19:29:03;15.30;1.00
5492;DHT22;2768;53.540;10.224;2023-05-10T19:34:58;15.20;1.00
5492;DHT22;2768;53.540;10.224;2023-05-10T19:40:53;15.20;1.00
5492;DHT22;2768;53.540;10.224;2023-05-10T19:46:49;15.10;1.00
5492;DHT22;2768;53.540;10.224;2023-05-10T19:52:45;14.90;1.00
5492;DHT22;2768;53.540;10.224;2023-05-10T19:58:39;14.90;1.00
5492;DHT22;2768;53.540;10.224;2023-05-10T20:04:33;14.90;1.00
5492;DHT22;2768;53.540;10.224;2023-05-10T20:10:29;14.90;1.00
5492;DHT22;2768;53.540;10.224;2023-05-10T20:16:22;14.90;1.00
5492;DHT22;2768;53.540;10.224;2023-05-10T20:22:17;15.00;1.00
5492;DHT22;2768;53.540;10.224;2023-05-10T20:28:12;14.80;1.00
5492;DHT22;2768;53.540;10.224;2023-05-10T20:34:05;14.70;1.00
5492;DHT22;2768;53.540;10.224;2023-05-10T20:39:58;14.60;1.00
5492;DHT22;2768;53.540;10.224;2023-05-10T20:45:53;14.60;1.00
5492;DHT22;2768;53.540;10.224;2023-05-10T20:51:46;14.60;1.00
5492;DHT22;2768;53.540;10.224;2023-05-10T20:57:39;14.50;99.90
5492;DHT22;2768;53.540;10.224;2023-05-10T21:03:34;14.40;1.00
5492;DHT22;2768;53.540;10.224;2023-05-10T21:09:27;14.50;1.00
5492;DHT22;2768;53.540;10.224;2023-05-10T21:15:21;14.50;1.00
5492;DHT22;2768;53.540;10.224;2023-05-10T21:21:16;14.40;99.90
5492;DHT22;2768;53.540;10.224;2023-05-10T21:27:09;14.30;1.00
5492;DHT22;2768;53.540;10.224;2023-05-10T21:33:03;14.30;99.90
5492;DHT22;2768;53.540;10.224;2023-05-10T21:38:58;14.30;99.90
5492;DHT22;2768;53.540;10.224;2023-05-10T21:44:51;14.30;99.90
5492;DHT22;2768;53.540;10.224;2023-05-10T21:50:44;14.40;99.90
5492;DHT22;2768;53.540;10.224;2023-05-10T21:56:40;14.30;99.90
5492;DHT22;2768;53.540;10.224;2023-05-10T22:02:33;14.20;99.90
5492;DHT22;2768;53.540;10.224;2023-05-10T22:08:26;14.10;99.90
5492;DHT22;2768;53.540;10.224;2023-05-10T22:14:21;14.10;99.90
5492;DHT22;2768;53.540;10.224;2023-05-10T22:20:15;14.00;99.90
5492;DHT22;2768;53.540;10.224;2023-05-10T22:26:08;13.90;99.90
5492;DHT22;2768;53.540;10.224;2023-05-10T22:32:03;13.90;1.00
5492;DHT22;2768;53.540;10.224;2023-05-10T22:37:57;14.00;1.00
5492;DHT22;2768;53.540;10.224;2023-05-10T22:43:50;14.00;1.00
5492;DHT22;2768;53.540;10.224;2023-05-10T22:49:45;14.00;1.00
5492;DHT22;2768;53.540;10.224;2023-05-10T22:55:38;14.00;1.00
5492;DHT22;2768;53.540;10.224;2023-05-10T23:01:31;13.90;1.00
5492;DHT22;2768;53.540;10.224;2023-05-10T23:07:26;13.90;1.00
5492;DHT22;2768;53.540;10.224;2023-05-10T23:13:19;13.90;1.00
5492;DHT22;2768;53.540;10.224;2023-05-10T23:19:13;13.90;1.00
5492;DHT22;2768;53.540;10.224;2023-05-10T23:25:08;13.70;1.00
5492;DHT22;2768;53.540;10.224;2023-05-10T23:31:02;13.80;1.00
5492;DHT22;2768;53.540;10.224;2023-05-10T23:36:55;13.60;1.00
5492;DHT22;2768;53.540;10.224;2023-05-10T23:42:49;13.70;1.00
5492;DHT22;2768;53.540;10.224;2023-05-10T23:48:43;13.70;99.90
5492;DHT22;2768;53.540;10.224;2023-05-10T23:54:36;13.80;99.90
